SCFA

Andres Sabella Galvez International Airport

Airport
ICAO code
SCFA
IATA Code
ANF
Summary
ICAO Region
CARSAM
ICAO Territory
Location

La Chimba, Antofagasta

Serving
Antofagasta
Elevation
455 ft
Coordinates
23° 26' 40" S , 70° 26' 42" W
KCC
Metar
Observation
SCFA 050300Z 10002KT CAVOK 22/16 Q1013 NOSIG
Station
Antofagasta
Date/Time
2023-02-05 03:00:00
Wind direction
100°
Wind speed
02 kts
Lowest cloud amount
clouds and visibility OK
Temperature
22°C
Dew point
16°C
Humidity
68%
QNH
1013 hPa
Weather condition
n/a

International airport 6.2 nm north of Antofagasta, Chile.

Climatology

Mild desert climate (Köppen climate classification BWh)

Runways

Designator Length Width Surface Rops
1/19 2599 50 ASP No/No

Airport map

Aerial View

SKYbrary Partners:

Safety knowledge contributed by: